sensor_id;sensor_type;location;lat;lon;timestamp;pressure;altitude;pressure_sealevel;temperature;humidity
74346;BME280;62776;50.518;6.732;2022-09-09T00:01:07;95938.84;;;14.37;100.00
74346;BME280;62776;50.518;6.732;2022-09-09T00:06:45;95928.56;;;14.31;100.00
74346;BME280;62776;50.518;6.732;2022-09-09T00:09:38;95926.88;;;14.30;100.00
74346;BME280;62776;50.518;6.732;2022-09-09T00:21:07;95925.16;;;14.29;100.00
74346;BME280;62776;50.518;6.732;2022-09-09T00:23:56;95934.69;;;14.32;100.00
74346;BME280;62776;50.518;6.732;2022-09-09T00:26:45;95925.94;;;14.31;100.00
74346;BME280;62776;50.518;6.732;2022-09-09T00:29:44;95933.84;;;14.30;100.00
74346;BME280;62776;50.518;6.732;2022-09-09T00:32:32;95937.31;;;14.30;100.00
74346;BME280;62776;50.518;6.732;2022-09-09T00:35:22;95940.03;;;14.27;100.00
74346;BME280;62776;50.518;6.732;2022-09-09T00:38:26;95939.25;;;14.25;100.00
74346;BME280;62776;50.518;6.732;2022-09-09T00:41:17;95935.72;;;14.26;100.00
74346;BME280;62776;50.518;6.732;2022-09-09T00:44:27;95932.19;;;14.27;100.00
74346;BME280;62776;50.518;6.732;2022-09-09T00:56:12;95940.81;;;14.31;100.00
74346;BME280;62776;50.518;6.732;2022-09-09T00:59:24;95939.00;;;14.31;100.00
74346;BME280;62776;50.518;6.732;2022-09-09T01:02:13;95937.19;;;14.35;100.00
74346;BME280;62776;50.518;6.732;2022-09-09T01:05:07;95949.31;;;14.37;100.00
74346;BME280;62776;50.518;6.732;2022-09-09T01:07:56;95940.56;;;14.38;100.00
74346;BME280;62776;50.518;6.732;2022-09-09T01:10:50;95940.44;;;14.41;100.00
74346;BME280;62776;50.518;6.732;2022-09-09T01:13:38;95946.53;;;14.42;100.00
74346;BME280;62776;50.518;6.732;2022-09-09T01:16:27;95938.63;;;14.43;100.00
74346;BME280;62776;50.518;6.732;2022-09-09T01:19:18;95938.69;;;14.42;100.00
74346;BME280;62776;50.518;6.732;2022-09-09T01:22:19;95940.44;;;14.41;100.00
74346;BME280;62776;50.518;6.732;2022-09-09T01:27:58;95939.66;;;14.39;100.00
74346;BME280;62776;50.518;6.732;2022-09-09T01:30:44;95940.56;;;14.38;100.00
74346;BME280;62776;50.518;6.732;2022-09-09T01:33:31;95942.31;;;14.38;100.00
74346;BME280;62776;50.518;6.732;2022-09-09T01:39:06;95945.72;;;14.40;100.00
74346;BME280;62776;50.518;6.732;2022-09-09T01:41:52;95946.53;;;14.42;100.00
74346;BME280;62776;50.518;6.732;2022-09-09T01:44:39;95949.88;;;14.45;100.00
74346;BME280;62776;50.518;6.732;2022-09-09T01:47:25;95937.66;;;14.46;100.00
74346;BME280;62776;50.518;6.732;2022-09-09T01:50:12;95938.53;;;14.46;100.00
74346;BME280;62776;50.518;6.732;2022-09-09T01:53:00;95946.31;;;14.48;100.00
74346;BME280;62776;50.518;6.732;2022-09-09T01:56:11;95953.19;;;14.50;100.00
74346;BME280;62776;50.518;6.732;2022-09-09T02:01:57;95948.56;;;14.58;100.00
74346;BME280;62776;50.518;6.732;2022-09-09T02:04:52;95945.00;;;14.61;100.00
74346;BME280;62776;50.518;6.732;2022-09-09T02:07:49;95943.19;;;14.61;100.00
74346;BME280;62776;50.518;6.732;2022-09-09T02:10:39;95951.03;;;14.61;100.00
74346;BME280;62776;50.518;6.732;2022-09-09T02:13:28;95946.63;;;14.63;100.00
74346;BME280;62776;50.518;6.732;2022-09-09T02:16:25;95937.88;;;14.64;100.00
74346;BME280;62776;50.518;6.732;2022-09-09T02:19:15;95935.25;;;14.64;100.00
74346;BME280;62776;50.518;6.732;2022-09-09T02:22:02;95936.16;;;14.63;100.00
74346;BME280;62776;50.518;6.732;2022-09-09T02:24:49;95934.41;;;14.64;100.00
74346;BME280;62776;50.518;6.732;2022-09-09T02:27:40;95934.47;;;14.62;100.00
74346;BME280;62776;50.518;6.732;2022-09-09T02:30:27;95932.81;;;14.60;100.00
74346;BME280;62776;50.518;6.732;2022-09-09T02:33:14;95939.91;;;14.56;100.00
74346;BME280;62776;50.518;6.732;2022-09-09T02:36:01;95934.78;;;14.53;100.00
74346;BME280;62776;50.518;6.732;2022-09-09T02:38:49;95936.66;;;14.50;100.00
74346;BME280;62776;50.518;6.732;2022-09-09T02:41:39;95930.69;;;14.46;100.00
74346;BME280;62776;50.518;6.732;2022-09-09T02:44:25;95929.88;;;14.44;100.00
74346;BME280;62776;50.518;6.732;2022-09-09T02:47:17;95924.78;;;14.41;100.00
74346;BME280;62776;50.518;6.732;2022-09-09T02:53:01;95909.19;;;14.38;100.00
74346;BME280;62776;50.518;6.732;2022-09-09T02:55:58;95907.53;;;14.36;100.00
74346;BME280;62776;50.518;6.732;2022-09-09T02:58:49;95915.38;;;14.36;100.00
74346;BME280;62776;50.518;6.732;2022-09-09T03:01:37;95912.75;;;14.36;100.00
74346;BME280;62776;50.518;6.732;2022-09-09T03:04:25;95913.78;;;14.30;100.00
74346;BME280;62776;50.518;6.732;2022-09-09T03:07:11;95924.25;;;14.30;100.00
74346;BME280;62776;50.518;6.732;2022-09-09T03:09:57;95928.69;;;14.28;100.00
74346;BME280;62776;50.518;6.732;2022-09-09T03:12:44;95924.25;;;14.30;100.00
74346;BME280;62776;50.518;6.732;2022-09-09T03:15:29;95913.72;;;14.33;100.00
74346;BME280;62776;50.518;6.732;2022-09-09T03:18:16;95928.38;;;14.37;100.00
74346;BME280;62776;50.518;6.732;2022-09-09T03:21:02;95924.88;;;14.38;100.00
74346;BME280;62776;50.518;6.732;2022-09-09T03:23:48;95912.75;;;14.36;100.00
74346;BME280;62776;50.518;6.732;2022-09-09T03:26:35;95915.56;;;14.30;100.00
74346;BME280;62776;50.518;6.732;2022-09-09T03:29:21;95915.81;;;14.22;100.00
74346;BME280;62776;50.518;6.732;2022-09-09T03:32:07;95909.09;;;14.15;100.00
74346;BME280;62776;50.518;6.732;2022-09-09T03:34:56;95912.72;;;14.11;100.00
74346;BME280;62776;50.518;6.732;2022-09-09T03:37:42;95919.03;;;14.05;100.00
74346;BME280;62776;50.518;6.732;2022-09-09T03:40:28;95905.09;;;14.05;100.00
74346;BME280;62776;50.518;6.732;2022-09-09T03:43:14;95906.91;;;14.03;100.00
74346;BME280;62776;50.518;6.732;2022-09-09T03:46:02;95915.66;;;14.02;100.00
74346;BME280;62776;50.518;6.732;2022-09-09T03:48:48;95917.41;;;14.01;100.00
74346;BME280;62776;50.518;6.732;2022-09-09T03:51:34;95914.06;;;13.98;100.00
74346;BME280;62776;50.518;6.732;2022-09-09T03:54:22;95917.56;;;13.97;100.00
74346;BME280;62776;50.518;6.732;2022-09-09T03:57:09;95919.28;;;13.98;100.00
74346;BME280;62776;50.518;6.732;2022-09-09T03:59:56;95903.81;;;13.92;100.00
74346;BME280;62776;50.518;6.732;2022-09-09T04:02:42;95903.00;;;13.90;100.00
74346;BME280;62776;50.518;6.732;2022-09-09T04:05:29;95897.94;;;13.85;100.00
74346;BME280;62776;50.518;6.732;2022-09-09T04:08:15;95904.91;;;13.85;100.00
74346;BME280;62776;50.518;6.732;2022-09-09T04:11:02;95905.81;;;13.84;100.00
74346;BME280;62776;50.518;6.732;2022-09-09T04:13:52;95891.94;;;13.82;100.00
74346;BME280;62776;50.518;6.732;2022-09-09T04:16:38;95904.22;;;13.80;100.00
74346;BME280;62776;50.518;6.732;2022-09-09T04:19:24;95906.03;;;13.78;100.00
74346;BME280;62776;50.518;6.732;2022-09-09T04:22:10;95909.59;;;13.75;100.00
74346;BME280;62776;50.518;6.732;2022-09-09T04:24:56;95908.72;;;13.75;100.00
74346;BME280;62776;50.518;6.732;2022-09-09T04:27:42;95911.34;;;13.75;100.00
74346;BME280;62776;50.518;6.732;2022-09-09T04:30:28;95918.31;;;13.74;100.00
74346;BME280;62776;50.518;6.732;2022-09-09T04:33:14;95909.63;;;13.74;100.00
74346;BME280;62776;50.518;6.732;2022-09-09T04:36:00;95916.63;;;13.73;100.00
74346;BME280;62776;50.518;6.732;2022-09-09T04:38:46;95915.69;;;13.76;100.00
74346;BME280;62776;50.518;6.732;2022-09-09T04:41:34;95912.25;;;13.74;100.00
74346;BME280;62776;50.518;6.732;2022-09-09T04:44:21;95908.72;;;13.75;100.00
74346;BME280;62776;50.518;6.732;2022-09-09T04:47:07;95912.13;;;13.77;100.00
74346;BME280;62776;50.518;6.732;2022-09-09T04:49:53;95906.78;;;13.81;100.00
74346;BME280;62776;50.518;6.732;2022-09-09T04:52:40;95903.16;;;13.85;100.00
74346;BME280;62776;50.518;6.732;2022-09-09T04:55:26;95910.94;;;13.87;100.00
74346;BME280;62776;50.518;6.732;2022-09-09T04:58:12;95906.53;;;13.89;100.00
74346;BME280;62776;50.518;6.732;2022-09-09T05:01:12;95916.13;;;13.88;100.00
74346;BME280;62776;50.518;6.732;2022-09-09T05:03:58;95915.22;;;13.89;100.00
74346;BME280;62776;50.518;6.732;2022-09-09T05:06:44;95920.34;;;13.92;100.00
74346;BME280;62776;50.518;6.732;2022-09-09T05:09:31;95924.72;;;13.92;100.00
74346;BME280;62776;50.518;6.732;2022-09-09T05:12:17;95927.25;;;13.93;100.00
74346;BME280;62776;50.518;6.732;2022-09-09T05:15:03;95924.50;;;13.98;100.00
74346;BME280;62776;50.518;6.732;2022-09-09T05:17:49;95925.25;;;14.01;100.00
74346;BME280;62776;50.518;6.732;2022-09-09T05:20:37;95929.50;;;14.04;100.00
74346;BME280;62776;50.518;6.732;2022-09-09T05:23:23;95927.75;;;14.04;100.00
74346;BME280;62776;50.518;6.732;2022-09-09T05:26:12;95926.00;;;14.05;100.00
74346;BME280;62776;50.518;6.732;2022-09-09T05:28:59;95923.31;;;14.06;100.00
74346;BME280;62776;50.518;6.732;2022-09-09T05:31:46;95928.50;;;14.08;100.00
74346;BME280;62776;50.518;6.732;2022-09-09T05:34:32;95919.78;;;14.09;100.00
74346;BME280;62776;50.518;6.732;2022-09-09T05:37:18;95922.38;;;14.09;100.00
74346;BME280;62776;50.518;6.732;2022-09-09T05:40:05;95921.56;;;14.07;100.00
74346;BME280;62776;50.518;6.732;2022-09-09T05:42:51;95926.78;;;14.07;100.00
74346;BME280;62776;50.518;6.732;2022-09-09T05:45:37;95922.38;;;14.09;100.00
74346;BME280;62776;50.518;6.732;2022-09-09T05:48:23;95918.84;;;14.10;100.00
74346;BME280;62776;50.518;6.732;2022-09-09T05:51:13;95922.25;;;14.12;100.00
74346;BME280;62776;50.518;6.732;2022-09-09T05:54:01;95927.44;;;14.13;100.00
74346;BME280;62776;50.518;6.732;2022-09-09T05:56:47;95924.78;;;14.15;100.00
74346;BME280;62776;50.518;6.732;2022-09-09T05:59:35;95936.03;;;14.17;100.00
74346;BME280;62776;50.518;6.732;2022-09-09T06:02:21;95939.50;;;14.17;100.00
74346;BME280;62776;50.518;6.732;2022-09-09T06:05:07;95936.66;;;14.24;100.00
74346;BME280;62776;50.518;6.732;2022-09-09T06:07:54;95937.28;;;14.32;100.00
74346;BME280;62776;50.518;6.732;2022-09-09T06:10:40;95936.91;;;14.42;100.00
74346;BME280;62776;50.518;6.732;2022-09-09T06:13:26;95939.09;;;14.54;100.00
74346;BME280;62776;50.518;6.732;2022-09-09T06:16:12;95922.28;;;14.61;100.00
74346;BME280;62776;50.518;6.732;2022-09-09T06:18:59;95932.06;;;14.56;100.00
74346;BME280;62776;50.518;6.732;2022-09-09T06:21:45;95927.75;;;14.55;100.00
74346;BME280;62776;50.518;6.732;2022-09-09T06:24:33;95931.47;;;14.48;100.00
74346;BME280;62776;50.518;6.732;2022-09-09T06:27:19;95926.31;;;14.47;100.00
74346;BME280;62776;50.518;6.732;2022-09-09T06:30:05;95925.28;;;14.51;100.00
74346;BME280;62776;50.518;6.732;2022-09-09T06:32:51;95917.22;;;14.57;100.00
74346;BME280;62776;50.518;6.732;2022-09-09T06:35:37;95918.66;;;14.65;100.00
74346;BME280;62776;50.518;6.732;2022-09-09T06:38:23;95913.00;;;14.77;100.00
74346;BME280;62776;50.518;6.732;2022-09-09T06:41:10;95922.38;;;14.83;100.00
74346;BME280;62776;50.518;6.732;2022-09-09T06:43:56;95909.91;;;14.90;100.00
74346;BME280;62776;50.518;6.732;2022-09-09T06:46:42;95907.16;;;14.93;100.00
74346;BME280;62776;50.518;6.732;2022-09-09T06:49:29;95906.94;;;14.99;100.00
74346;BME280;62776;50.518;6.732;2022-09-09T06:52:15;95905.06;;;15.02;100.00
74346;BME280;62776;50.518;6.732;2022-09-09T06:55:01;95901.41;;;15.06;100.00
74346;BME280;62776;50.518;6.732;2022-09-09T06:57:47;95888.09;;;15.12;100.00
74346;BME280;62776;50.518;6.732;2022-09-09T07:00:34;95895.19;;;15.09;100.00
74346;BME280;62776;50.518;6.732;2022-09-09T07:03:20;95899.31;;;15.16;100.00
74346;BME280;62776;50.518;6.732;2022-09-09T07:06:06;95908.50;;;15.26;100.00
74346;BME280;62776;50.518;6.732;2022-09-09T07:08:53;95906.44;;;15.34;100.00
74346;BME280;62776;50.518;6.732;2022-09-09T07:11:41;95905.22;;;15.43;100.00
74346;BME280;62776;50.518;6.732;2022-09-09T07:14:27;95912.03;;;15.48;100.00
74346;BME280;62776;50.518;6.732;2022-09-09T07:17:13;95915.63;;;15.44;100.00
74346;BME280;62776;50.518;6.732;2022-09-09T07:20:00;95919.19;;;15.43;100.00
74346;BME280;62776;50.518;6.732;2022-09-09T07:22:46;95912.91;;;15.47;99.64
74346;BME280;62776;50.518;6.732;2022-09-09T07:25:32;95922.00;;;15.60;98.34
74346;BME280;62776;50.518;6.732;2022-09-09T07:28:18;95936.44;;;15.70;97.32
74346;BME280;62776;50.518;6.732;2022-09-09T07:31:05;95932.34;;;15.85;96.49
74346;BME280;62776;50.518;6.732;2022-09-09T07:33:51;95942.00;;;16.05;96.09
74346;BME280;62776;50.518;6.732;2022-09-09T07:36:38;95938.16;;;16.13;92.41
74346;BME280;62776;50.518;6.732;2022-09-09T07:39:24;95944.13;;;16.17;93.69
74346;BME280;62776;50.518;6.732;2022-09-09T07:42:10;95940.31;;;16.24;91.10
74346;BME280;62776;50.518;6.732;2022-09-09T07:44:57;95954.03;;;16.30;89.31
74346;BME280;62776;50.518;6.732;2022-09-09T07:47:43;95956.91;;;16.24;88.16
74346;BME280;62776;50.518;6.732;2022-09-09T07:50:29;95956.00;;;16.25;87.89
74346;BME280;62776;50.518;6.732;2022-09-09T07:53:15;95957.53;;;16.31;87.88
74346;BME280;62776;50.518;6.732;2022-09-09T07:56:11;95955.47;;;16.37;89.25
74346;BME280;62776;50.518;6.732;2022-09-09T07:58:58;95962.06;;;16.47;86.92
74346;BME280;62776;50.518;6.732;2022-09-09T08:01:45;95951.34;;;16.52;87.74
74346;BME280;62776;50.518;6.732;2022-09-09T08:04:32;95954.25;;;16.66;87.34
74346;BME280;62776;50.518;6.732;2022-09-09T08:07:18;95959.13;;;16.75;86.46
74346;BME280;62776;50.518;6.732;2022-09-09T08:10:06;95950.31;;;16.76;84.68
74346;BME280;62776;50.518;6.732;2022-09-09T08:12:52;95968.50;;;16.81;85.31
74346;BME280;62776;50.518;6.732;2022-09-09T08:15:38;95965.16;;;16.77;84.95
74346;BME280;62776;50.518;6.732;2022-09-09T08:18:26;95969.63;;;16.75;85.45
74346;BME280;62776;50.518;6.732;2022-09-09T08:21:13;95965.63;;;16.67;86.33
74346;BME280;62776;50.518;6.732;2022-09-09T08:24:00;95978.91;;;16.62;86.52
74346;BME280;62776;50.518;6.732;2022-09-09T08:26:47;95981.38;;;16.67;86.12
74346;BME280;62776;50.518;6.732;2022-09-09T08:29:35;95977.66;;;16.71;85.86
74346;BME280;62776;50.518;6.732;2022-09-09T08:32:21;95983.34;;;16.62;86.04
74346;BME280;62776;50.518;6.732;2022-09-09T08:35:07;95975.53;;;16.60;85.66
74346;BME280;62776;50.518;6.732;2022-09-09T08:37:54;95973.66;;;16.62;85.43
74346;BME280;62776;50.518;6.732;2022-09-09T08:40:41;95977.94;;;16.65;85.52
74346;BME280;62776;50.518;6.732;2022-09-09T08:43:30;95968.81;;;16.73;85.94
74346;BME280;62776;50.518;6.732;2022-09-09T08:46:23;95976.19;;;17.04;83.55
74346;BME280;62776;50.518;6.732;2022-09-09T08:49:18;95969.81;;;17.09;82.77
74346;BME280;62776;50.518;6.732;2022-09-09T08:52:19;95969.13;;;17.25;81.33
74346;BME280;62776;50.518;6.732;2022-09-09T08:56:09;95986.66;;;17.24;76.43
74346;BME280;62776;50.518;6.732;2022-09-09T08:58:23;95962.53;;;17.35;75.94
74346;BME280;62776;50.518;6.732;2022-09-09T09:07:11;95982.47;;;17.39;73.50
74346;BME280;62776;50.518;6.732;2022-09-09T09:13:27;95971.81;;;17.42;74.90
74346;BME280;62776;50.518;6.732;2022-09-09T09:16:25;95981.41;;;17.43;75.91
74346;BME280;62776;50.518;6.732;2022-09-09T09:19:13;95988.88;;;17.52;75.51
74346;BME280;62776;50.518;6.732;2022-09-09T09:24:53;95988.28;;;17.83;77.00
74346;BME280;62776;50.518;6.732;2022-09-09T09:27:42;95980.16;;;18.06;74.45
74346;BME280;62776;50.518;6.732;2022-09-09T09:30:31;95984.72;;;18.02;75.36
74346;BME280;62776;50.518;6.732;2022-09-09T09:33:22;95976.47;;;18.10;72.92
74346;BME280;62776;50.518;6.732;2022-09-09T09:36:09;95974.00;;;18.07;74.18
74346;BME280;62776;50.518;6.732;2022-09-09T09:38:56;95984.38;;;18.10;74.84
74346;BME280;62776;50.518;6.732;2022-09-09T09:41:42;95971.88;;;18.13;72.55
74346;BME280;62776;50.518;6.732;2022-09-09T09:44:30;95969.78;;;18.03;75.74
74346;BME280;62776;50.518;6.732;2022-09-09T09:47:17;95969.53;;;18.26;74.23
74346;BME280;62776;50.518;6.732;2022-09-09T09:52:56;95978.16;;;18.64;72.28
74346;BME280;62776;50.518;6.732;2022-09-09T09:55:46;95977.44;;;18.60;69.18
74346;BME280;62776;50.518;6.732;2022-09-09T09:58:38;95986.00;;;18.47;69.63
74346;BME280;62776;50.518;6.732;2022-09-09T10:01:35;95987.09;;;18.43;70.61
74346;BME280;62776;50.518;6.732;2022-09-09T10:04:21;95991.41;;;18.44;69.66
74346;BME280;62776;50.518;6.732;2022-09-09T10:07:12;95981.69;;;18.28;68.66
74346;BME280;62776;50.518;6.732;2022-09-09T10:09:58;95989.19;;;18.36;70.41
74346;BME280;62776;50.518;6.732;2022-09-09T10:12:53;95982.59;;;18.45;69.30
74346;BME280;62776;50.518;6.732;2022-09-09T10:27:18;95992.50;;;19.08;69.48
74346;BME280;62776;50.518;6.732;2022-09-09T10:33:10;95984.47;;;19.75;65.97
74346;BME280;62776;50.518;6.732;2022-09-09T10:36:23;95982.34;;;19.66;65.65
74346;BME280;62776;50.518;6.732;2022-09-09T10:42:06;95980.63;;;19.50;66.86
74346;BME280;62776;50.518;6.732;2022-09-09T10:50:59;95976.06;;;19.36;65.08
74346;BME280;62776;50.518;6.732;2022-09-09T10:56:34;95979.63;;;19.52;62.28
74346;BME280;62776;50.518;6.732;2022-09-09T10:59:22;95976.47;;;19.28;63.73
74346;BME280;62776;50.518;6.732;2022-09-09T11:02:13;95976.66;;;19.25;64.55
74346;BME280;62776;50.518;6.732;2022-09-09T11:08:14;95969.72;;;19.40;66.13
74346;BME280;62776;50.518;6.732;2022-09-09T11:11:08;95980.63;;;19.65;63.26
74346;BME280;62776;50.518;6.732;2022-09-09T11:14:01;95970.69;;;19.86;62.43
74346;BME280;62776;50.518;6.732;2022-09-09T11:16:52;95980.09;;;20.06;62.97
74346;BME280;62776;50.518;6.732;2022-09-09T11:19:40;95972.69;;;20.28;60.16
74346;BME280;62776;50.518;6.732;2022-09-09T11:25:20;95979.06;;;20.69;57.58
74346;BME280;62776;50.518;6.732;2022-09-09T11:31:04;95964.31;;;20.51;56.63
74346;BME280;62776;50.518;6.732;2022-09-09T11:37:06;95965.81;;;20.25;58.96
74346;BME280;62776;50.518;6.732;2022-09-09T11:42:40;95964.75;;;20.43;55.28
74346;BME280;62776;50.518;6.732;2022-09-09T11:45:27;95966.56;;;20.27;57.63
74346;BME280;62776;50.518;6.732;2022-09-09T11:48:36;95966.81;;;20.23;59.23
74346;BME280;62776;50.518;6.732;2022-09-09T11:51:25;95961.72;;;20.35;58.72
74346;BME280;62776;50.518;6.732;2022-09-09T11:54:28;95971.09;;;20.25;58.39
74346;BME280;62776;50.518;6.732;2022-09-09T11:57:20;95968.28;;;20.28;58.69
74346;BME280;62776;50.518;6.732;2022-09-09T12:00:27;95960.81;;;20.05;59.00
74346;BME280;62776;50.518;6.732;2022-09-09T12:06:20;95965.84;;;19.94;60.11
74346;BME280;62776;50.518;6.732;2022-09-09T12:09:18;95967.38;;;19.82;60.78
74346;BME280;62776;50.518;6.732;2022-09-09T12:12:06;95966.78;;;19.77;61.00
74346;BME280;62776;50.518;6.732;2022-09-09T12:14:57;95960.41;;;19.66;60.96
74346;BME280;62776;50.518;6.732;2022-09-09T12:17:49;95962.28;;;19.79;61.54
74346;BME280;62776;50.518;6.732;2022-09-09T12:20:36;95968.78;;;20.03;58.58
74346;BME280;62776;50.518;6.732;2022-09-09T12:23:30;95956.44;;;20.20;60.47
74346;BME280;62776;50.518;6.732;2022-09-09T12:29:25;95964.31;;;20.51;59.23
74346;BME280;62776;50.518;6.732;2022-09-09T12:32:14;95980.03;;;20.52;56.92
74346;BME280;62776;50.518;6.732;2022-09-09T12:35:03;95982.91;;;20.18;59.34
74346;BME280;62776;50.518;6.732;2022-09-09T12:37:56;95977.06;;;19.97;61.88
74346;BME280;62776;50.518;6.732;2022-09-09T12:40:43;95980.81;;;19.78;65.10
74346;BME280;62776;50.518;6.732;2022-09-09T12:43:39;95986.22;;;19.43;70.42
74346;BME280;62776;50.518;6.732;2022-09-09T12:46:30;96002.41;;;18.70;82.17
74346;BME280;62776;50.518;6.732;2022-09-09T12:49:24;96004.41;;;18.29;90.55
74346;BME280;62776;50.518;6.732;2022-09-09T12:52:21;96007.13;;;18.28;91.67
74346;BME280;62776;50.518;6.732;2022-09-09T12:55:15;95996.75;;;18.25;90.73
74346;BME280;62776;50.518;6.732;2022-09-09T12:58:02;95986.00;;;18.29;87.65
74346;BME280;62776;50.518;6.732;2022-09-09T13:00:52;95988.56;;;18.31;88.09
74346;BME280;62776;50.518;6.732;2022-09-09T13:03:42;95980.84;;;18.45;86.66
74346;BME280;62776;50.518;6.732;2022-09-09T13:06:29;95986.91;;;18.81;86.09
74346;BME280;62776;50.518;6.732;2022-09-09T13:09:15;95984.59;;;19.08;78.19
74346;BME280;62776;50.518;6.732;2022-09-09T13:12:01;95982.75;;;19.26;78.90
74346;BME280;62776;50.518;6.732;2022-09-09T13:14:52;95972.34;;;19.40;75.17
74346;BME280;62776;50.518;6.732;2022-09-09T13:17:39;95968.88;;;19.39;75.42
74346;BME280;62776;50.518;6.732;2022-09-09T13:20:26;95969.13;;;19.51;74.12
74346;BME280;62776;50.518;6.732;2022-09-09T13:23:13;95967.44;;;19.50;74.58
74346;BME280;62776;50.518;6.732;2022-09-09T13:26:02;95966.50;;;19.51;73.80
74346;BME280;62776;50.518;6.732;2022-09-09T13:28:50;95957.63;;;19.36;74.36
74346;BME280;62776;50.518;6.732;2022-09-09T13:31:36;95951.66;;;19.32;74.71
74346;BME280;62776;50.518;6.732;2022-09-09T13:34:26;95949.03;;;19.32;73.30
74346;BME280;62776;50.518;6.732;2022-09-09T13:37:34;95955.31;;;19.30;73.02
74346;BME280;62776;50.518;6.732;2022-09-09T13:40:22;95952.16;;;19.23;78.62
74346;BME280;62776;50.518;6.732;2022-09-09T13:43:14;95948.59;;;19.24;77.22
74346;BME280;62776;50.518;6.732;2022-09-09T13:46:06;95946.66;;;19.28;76.86
74346;BME280;62776;50.518;6.732;2022-09-09T13:52:17;95943.56;;;19.53;74.59
74346;BME280;62776;50.518;6.732;2022-09-09T13:55:05;95937.94;;;19.59;72.87
74346;BME280;62776;50.518;6.732;2022-09-09T13:57:54;95940.31;;;19.48;72.87
74346;BME280;62776;50.518;6.732;2022-09-09T14:00:41;95942.91;;;19.32;74.76
74346;BME280;62776;50.518;6.732;2022-09-09T14:03:27;95943.75;;;19.17;77.63
74346;BME280;62776;50.518;6.732;2022-09-09T14:06:13;95943.84;;;18.98;77.28
74346;BME280;62776;50.518;6.732;2022-09-09T14:08:59;95942.94;;;18.99;79.62
74346;BME280;62776;50.518;6.732;2022-09-09T14:11:45;95942.63;;;19.85;77.51
74346;BME280;62776;50.518;6.732;2022-09-09T14:14:32;95928.66;;;21.16;70.23
74346;BME280;62776;50.518;6.732;2022-09-09T14:17:18;95933.06;;;22.25;66.71
74346;BME280;62776;50.518;6.732;2022-09-09T14:20:04;95934.16;;;23.38;58.46
74346;BME280;62776;50.518;6.732;2022-09-09T14:22:54;95927.16;;;23.86;54.89
74346;BME280;62776;50.518;6.732;2022-09-09T14:25:43;95924.28;;;24.60;52.60
74346;BME280;62776;50.518;6.732;2022-09-09T14:28:29;95932.97;;;24.86;49.83
74346;BME280;62776;50.518;6.732;2022-09-09T14:31:15;95928.63;;;24.85;49.86
74346;BME280;62776;50.518;6.732;2022-09-09T14:34:03;95923.44;;;24.94;49.74
74346;BME280;62776;50.518;6.732;2022-09-09T14:36:49;95933.00;;;23.91;51.72
74346;BME280;62776;50.518;6.732;2022-09-09T14:39:35;95927.34;;;24.43;50.37
74346;BME280;62776;50.518;6.732;2022-09-09T14:42:21;95945.59;;;24.36;50.25
74346;BME280;62776;50.518;6.732;2022-09-09T14:45:07;95935.97;;;22.87;55.42
74346;BME280;62776;50.518;6.732;2022-09-09T14:47:54;95958.59;;;21.31;60.63
74346;BME280;62776;50.518;6.732;2022-09-09T14:50:40;95960.47;;;20.41;66.32
74346;BME280;62776;50.518;6.732;2022-09-09T14:53:27;95959.69;;;20.09;68.09
74346;BME280;62776;50.518;6.732;2022-09-09T14:56:19;95954.78;;;19.72;69.73
74346;BME280;62776;50.518;6.732;2022-09-09T14:59:07;95961.75;;;19.41;71.46
74346;BME280;62776;50.518;6.732;2022-09-09T15:01:53;95964.09;;;19.30;71.84
74346;BME280;62776;50.518;6.732;2022-09-09T15:04:39;95976.44;;;19.13;76.36
74346;BME280;62776;50.518;6.732;2022-09-09T15:07:25;95979.44;;;18.90;78.33
74346;BME280;62776;50.518;6.732;2022-09-09T15:10:13;95968.47;;;18.81;77.72
74346;BME280;62776;50.518;6.732;2022-09-09T15:12:59;95975.56;;;18.79;78.17
74346;BME280;62776;50.518;6.732;2022-09-09T15:15:45;95974.75;;;18.62;78.38
74346;BME280;62776;50.518;6.732;2022-09-09T15:18:31;95973.78;;;18.46;78.25
74346;BME280;62776;50.518;6.732;2022-09-09T15:21:18;95976.13;;;18.35;79.15
74346;BME280;62776;50.518;6.732;2022-09-09T15:24:05;95981.06;;;18.23;79.84
74346;BME280;62776;50.518;6.732;2022-09-09T15:26:53;95984.19;;;18.13;80.88
74346;BME280;62776;50.518;6.732;2022-09-09T15:29:40;95971.28;;;18.25;81.96
74346;BME280;62776;50.518;6.732;2022-09-09T15:32:27;95971.31;;;18.43;81.00
74346;BME280;62776;50.518;6.732;2022-09-09T15:35:13;95978.44;;;18.58;79.97
74346;BME280;62776;50.518;6.732;2022-09-09T15:38:01;95981.84;;;18.60;79.50
74346;BME280;62776;50.518;6.732;2022-09-09T15:40:52;95984.47;;;18.77;78.39
74346;BME280;62776;50.518;6.732;2022-09-09T15:43:43;95979.06;;;18.80;79.38
74346;BME280;62776;50.518;6.732;2022-09-09T15:46:32;95990.53;;;18.62;79.32
74346;BME280;62776;50.518;6.732;2022-09-09T15:49:25;95983.19;;;18.51;79.92
74346;BME280;62776;50.518;6.732;2022-09-09T15:52:11;95982.41;;;18.49;79.52
74346;BME280;62776;50.518;6.732;2022-09-09T15:54:57;95988.16;;;18.39;79.49
74346;BME280;62776;50.518;6.732;2022-09-09T15:57:43;95998.00;;;18.35;84.44
74346;BME280;62776;50.518;6.732;2022-09-09T16:00:29;95999.06;;;18.14;92.58
74346;BME280;62776;50.518;6.732;2022-09-09T16:03:15;95990.91;;;17.65;97.86
74346;BME280;62776;50.518;6.732;2022-09-09T16:06:02;95984.03;;;17.43;100.00
74346;BME280;62776;50.518;6.732;2022-09-09T16:08:49;95992.97;;;17.20;100.00
74346;BME280;62776;50.518;6.732;2022-09-09T16:11:36;95999.56;;;17.10;100.00
74346;BME280;62776;50.518;6.732;2022-09-09T16:14:23;95997.47;;;16.98;100.00
74346;BME280;62776;50.518;6.732;2022-09-09T16:17:10;95994.53;;;17.05;100.00
74346;BME280;62776;50.518;6.732;2022-09-09T16:19:56;95980.72;;;17.00;100.00
74346;BME280;62776;50.518;6.732;2022-09-09T16:22:43;95987.94;;;16.95;100.00
74346;BME280;62776;50.518;6.732;2022-09-09T16:25:29;95991.78;;;16.88;100.00